Time;durP1;ratioP1;P1;durP2;ratioP2;P2;SDS_P1;SDS_P2;PMS_P1;PMS_P2;Temp;Humidity;BMP_temperature;BMP_pressure;BME280_temperature;BME280_humidity;BME280_pressure;Samples;Min_cycle;Max_cycle;Signal;HPM_P1;HPM_P2
2022/07/04 00:00:51;;;;;;;12.52;2.22;;;41.10;15.70;;;;;;4949824;29;20437;-64
2022/07/04 00:03:18;;;;;;;18.35;2.13;;;41.00;15.60;;;;;;4950949;29;20154;-64
2022/07/04 00:05:45;;;;;;;20.33;3.20;;;41.00;16.10;;;;;;4947886;28;20131;-64
2022/07/04 00:08:11;;;;;;;26.70;3.08;;;40.70;16.30;;;;;;4948807;29;20047;-64
2022/07/04 00:10:38;;;;;;;37.80;2.83;;;40.70;16.30;;;;;;4951299;29;20091;-63
2022/07/04 00:13:05;;;;;;;26.88;2.67;;;40.30;16.40;;;;;;4949393;28;20068;-62
2022/07/04 00:15:32;;;;;;;27.42;3.03;;;40.20;16.70;;;;;;4949560;29;20521;-63
2022/07/04 00:17:59;;;;;;;15.63;2.00;;;40.10;17.00;;;;;;4948226;28;20108;-60
2022/07/04 00:20:26;;;;;;;17.17;2.25;;;40.00;17.10;;;;;;4949389;28;20048;-61
2022/07/04 00:22:53;;;;;;;16.08;2.00;;;40.00;17.10;;;;;;4949053;28;20112;-61
2022/07/04 00:25:19;;;;;;;22.55;2.65;;;39.90;17.00;;;;;;4950741;29;20418;-64
2022/07/04 00:27:46;;;;;;;27.95;3.10;;;39.80;17.30;;;;;;4950730;28;20047;-64
2022/07/04 00:30:13;;;;;;;14.60;3.13;;;39.60;17.50;;;;;;4950106;29;20146;-64
2022/07/04 00:32:40;;;;;;;14.02;2.20;;;39.70;17.80;;;;;;4952589;28;20065;-61
2022/07/04 00:35:07;;;;;;;14.68;2.65;;;39.80;17.90;;;;;;4952580;29;20204;-63
2022/07/04 00:37:34;;;;;;;14.05;2.50;;;39.60;17.60;;;;;;4955323;28;20076;-63
2022/07/04 00:40:00;;;;;;;11.68;1.77;;;39.60;17.50;;;;;;4952986;29;20050;-64
2022/07/04 00:42:27;;;;;;;12.15;1.90;;;39.60;17.80;;;;;;4953594;28;20053;-64
2022/07/04 00:44:53;;;;;;;12.27;1.70;;;39.60;17.50;;;;;;4953981;29;20069;-61
2022/07/04 00:47:20;;;;;;;16.38;1.67;;;39.50;17.50;;;;;;4953101;28;20144;-62
2022/07/04 00:49:47;;;;;;;11.48;2.00;;;39.20;17.60;;;;;;4952395;29;20065;-62
2022/07/04 00:52:14;;;;;;;12.85;2.17;;;39.10;17.70;;;;;;4952257;29;20089;-64
2022/07/04 00:54:41;;;;;;;11.82;2.45;;;39.00;17.80;;;;;;4953198;28;20172;-65
2022/07/04 00:57:08;;;;;;;16.60;1.95;;;38.90;17.70;;;;;;4953238;28;20423;-61
2022/07/04 00:59:34;;;;;;;10.55;1.95;;;38.90;17.60;;;;;;4952700;28;20091;-63
2022/07/04 01:02:00;;;;;;;5.25;1.60;;;38.70;17.40;;;;;;4952856;28;20060;-62
2022/07/04 01:04:27;;;;;;;9.27;1.75;;;38.70;17.70;;;;;;4952441;28;20060;-63
2022/07/04 01:06:53;;;;;;;13.90;2.20;;;38.60;17.80;;;;;;4952566;28;20071;-63
2022/07/04 01:09:20;;;;;;;17.33;2.45;;;38.50;17.80;;;;;;4952797;29;20064;-63
2022/07/04 01:11:50;;;;;;;14.77;2.25;;;38.50;18.20;;;;;;4952313;28;20070;-62
2022/07/04 01:14:17;;;;;;;22.15;2.60;;;38.50;18.10;;;;;;4948875;28;20082;-63
2022/07/04 01:16:43;;;;;;;20.25;2.42;;;38.30;18.00;;;;;;4952093;28;20471;-64
2022/07/04 01:19:10;;;;;;;15.65;2.40;;;38.30;17.70;;;;;;4950751;28;20060;-63
2022/07/04 01:21:36;;;;;;;14.40;2.25;;;38.20;17.80;;;;;;4951790;29;20054;-62
2022/07/04 01:24:02;;;;;;;19.25;2.38;;;38.30;17.90;;;;;;4952318;28;20061;-61
2022/07/04 01:26:30;;;;;;;12.45;2.00;;;38.20;17.90;;;;;;4952955;28;20088;-62
2022/07/04 01:28:56;;;;;;;34.95;3.13;;;38.20;17.90;;;;;;4951812;29;20067;-63
2022/07/04 01:31:23;;;;;;;11.13;2.00;;;38.20;17.70;;;;;;4952425;28;20067;-60
2022/07/04 01:33:49;;;;;;;11.40;1.85;;;38.10;17.80;;;;;;4951575;28;20472;-62
2022/07/04 01:36:16;;;;;;;9.05;1.42;;;38.00;17.70;;;;;;4952235;28;20083;-63
2022/07/04 01:38:42;;;;;;;9.55;1.70;;;37.70;17.80;;;;;;4968059;28;20087;-61
2022/07/04 01:41:08;;;;;;;9.27;1.92;;;37.60;17.80;;;;;;4952053;29;20377;-61
2022/07/04 01:43:35;;;;;;;8.65;1.50;;;37.60;17.90;;;;;;4951480;28;20071;-62
2022/07/04 01:46:01;;;;;;;9.05;1.30;;;37.40;17.80;;;;;;4951863;28;20095;-61
2022/07/04 01:48:28;;;;;;;12.65;1.70;;;37.40;17.70;;;;;;4952005;28;20533;-61
2022/07/04 01:50:54;;;;;;;7.43;1.52;;;37.40;17.70;;;;;;4952067;28;20121;-62
2022/07/04 01:53:20;;;;;;;9.45;1.52;;;37.30;17.60;;;;;;4951513;28;20096;-62
2022/07/04 01:55:47;;;;;;;8.18;1.80;;;37.20;17.60;;;;;;4937409;29;20545;-62
2022/07/04 01:58:13;;;;;;;12.23;1.75;;;37.00;17.80;;;;;;4951686;28;20075;-61
2022/07/04 02:03:25;;;;;;;21.58;2.40;;;36.90;17.80;;;;;;4951771;29;20149;-64
2022/07/04 02:05:51;;;;;;;10.25;1.90;;;36.90;17.50;;;;;;4953767;28;20536;-61
2022/07/04 02:08:18;;;;;;;12.52;1.52;;;36.80;17.40;;;;;;4951603;29;20171;-62
2022/07/04 02:10:45;;;;;;;8.02;1.60;;;36.70;17.50;;;;;;4952417;29;20523;-63
2022/07/04 02:13:11;;;;;;;16.30;2.03;;;36.50;17.20;;;;;;4951640;29;20444;-61
2022/07/04 02:15:42;;;;;;;12.38;1.90;;;36.40;17.40;;;;;;4952058;28;20133;-62
2022/07/04 02:18:11;;;;;;;16.02;2.70;;;36.40;17.50;;;;;;4952046;29;20586;-63
2022/07/04 02:20:38;;;;;;;13.40;2.20;;;36.30;17.40;;;;;;4949239;29;20074;-62
2022/07/04 02:23:05;;;;;;;14.63;2.58;;;36.20;17.60;;;;;;4949054;29;20148;-61
2022/07/04 02:25:32;;;;;;;20.90;2.67;;;36.10;17.90;;;;;;4934262;28;20170;-61
2022/07/04 02:27:58;;;;;;;13.25;2.45;;;36.00;18.00;;;;;;4950366;29;20256;-62
2022/07/04 02:30:25;;;;;;;11.38;2.17;;;35.90;18.00;;;;;;4952079;29;20530;-61
2022/07/04 02:32:52;;;;;;;15.45;2.63;;;35.90;18.10;;;;;;4951049;28;20176;-61
2022/07/04 02:35:18;;;;;;;18.85;3.20;;;35.90;18.30;;;;;;4950324;28;20142;-61
2022/07/04 02:37:45;;;;;;;21.90;3.28;;;35.70;18.40;;;;;;4951319;29;20078;-61
2022/07/04 02:40:11;;;;;;;24.35;3.50;;;35.60;18.40;;;;;;4952248;28;20553;-61
2022/07/04 02:42:38;;;;;;;17.85;2.95;;;35.60;18.60;;;;;;4936336;29;20212;-61
2022/07/04 02:45:05;;;;;;;18.75;2.28;;;35.50;18.70;;;;;;4952046;28;20165;-61
2022/07/04 02:47:31;;;;;;;14.27;2.45;;;35.40;18.70;;;;;;4951607;29;20069;-61
2022/07/04 02:50:01;;;;;;;12.65;2.75;;;35.30;18.90;;;;;;4953599;29;20162;-60
2022/07/04 02:52:29;;;;;;;14.75;2.92;;;35.20;19.00;;;;;;4950803;28;20082;-62
2022/07/04 02:54:55;;;;;;;12.77;3.00;;;35.10;19.10;;;;;;4951472;28;20024;-61
2022/07/04 02:57:22;;;;;;;38.05;3.88;;;35.00;19.10;;;;;;4951019;29;20102;-62
2022/07/04 02:59:48;;;;;;;13.27;2.20;;;34.90;19.00;;;;;;4935253;29;20132;-61
2022/07/04 03:02:14;;;;;;;14.57;2.80;;;34.90;19.20;;;;;;4951983;29;20135;-60
2022/07/04 03:04:41;;;;;;;11.40;2.33;;;34.80;19.10;;;;;;4935713;29;20170;-59
2022/07/04 03:07:08;;;;;;;8.00;2.00;;;34.70;19.00;;;;;;4948771;28;20090;-60
2022/07/04 03:09:35;;;;;;;17.45;2.38;;;34.70;19.00;;;;;;4950175;28;20174;-60
2022/07/04 03:12:01;;;;;;;11.93;2.03;;;34.60;19.10;;;;;;4950959;28;20181;-59
2022/07/04 03:14:28;;;;;;;10.10;2.05;;;34.50;19.20;;;;;;4935059;29;20536;-61
2022/07/04 03:16:54;;;;;;;15.10;2.20;;;34.40;19.30;;;;;;4951791;29;20086;-60
2022/07/04 03:19:21;;;;;;;12.20;1.95;;;34.40;19.20;;;;;;4950996;28;20079;-59
2022/07/04 03:21:47;;;;;;;10.93;1.85;;;34.40;19.10;;;;;;4948470;28;20143;-60
2022/07/04 03:24:14;;;;;;;11.68;1.80;;;34.30;19.20;;;;;;4951306;29;20085;-60
2022/07/04 03:26:40;;;;;;;11.10;1.60;;;34.10;19.10;;;;;;4951516;28;20089;-60
2022/07/04 03:29:06;;;;;;;9.20;1.73;;;34.10;19.20;;;;;;4950865;28;20094;-61
2022/07/04 03:31:33;;;;;;;8.18;1.80;;;34.00;19.10;;;;;;4918933;29;20095;-61
2022/07/04 03:33:59;;;;;;;13.90;2.50;;;34.00;19.40;;;;;;4950823;28;20135;-61
2022/07/04 03:36:25;;;;;;;13.75;1.45;;;33.90;19.30;;;;;;4949814;28;20393;-58
2022/07/04 03:38:52;;;;;;;7.45;1.38;;;33.80;19.40;;;;;;4935176;29;20501;-60
2022/07/04 03:41:18;;;;;;;6.30;1.50;;;33.80;19.60;;;;;;4950801;28;20503;-60
2022/07/04 03:43:44;;;;;;;10.10;1.60;;;33.70;19.50;;;;;;4950439;29;20098;-59
2022/07/04 03:46:11;;;;;;;9.82;1.70;;;33.70;19.80;;;;;;4934066;29;20161;-60
2022/07/04 03:48:37;;;;;;;8.93;2.03;;;33.70;19.80;;;;;;4949981;28;20077;-60
2022/07/04 03:51:04;;;;;;;10.07;1.52;;;33.60;19.70;;;;;;4949106;29;20098;-61
2022/07/04 03:53:30;;;;;;;11.68;1.70;;;33.50;19.70;;;;;;4951825;28;20605;-59
2022/07/04 03:55:57;;;;;;;15.35;1.90;;;33.40;19.70;;;;;;4951187;28;20074;-61
2022/07/04 03:58:23;;;;;;;11.35;1.70;;;33.40;19.70;;;;;;4950733;29;20530;-61
2022/07/04 04:00:50;;;;;;;8.88;1.70;;;33.40;19.80;;;;;;4950173;29;20123;-60
2022/07/04 04:06:01;;;;;;;6.88;1.60;;;33.30;19.90;;;;;;4949414;28;20109;-61
2022/07/04 04:08:27;;;;;;;7.03;2.42;;;33.20;20.20;;;;;;4949964;28;20074;-60
2022/07/04 04:10:53;;;;;;;10.32;2.47;;;33.10;19.60;;;;;;4950343;28;20075;-62
2022/07/04 04:13:20;;;;;;;7.43;1.63;;;33.10;19.60;;;;;;4950070;28;20143;-61
2022/07/04 04:15:46;;;;;;;8.15;1.95;;;33.00;19.80;;;;;;4949877;28;20070;-60
2022/07/04 04:18:12;;;;;;;10.68;1.80;;;32.90;19.90;;;;;;4949872;28;20149;-62
2022/07/04 04:20:39;;;;;;;5.40;1.50;;;32.90;19.80;;;;;;4933788;29;20078;-61
2022/07/04 04:23:05;;;;;;;9.70;1.58;;;32.90;19.90;;;;;;4947292;28;20075;-61
2022/07/04 04:25:32;;;;;;;9.45;1.75;;;32.90;20.20;;;;;;4949342;28;20106;-64
2022/07/04 04:27:58;;;;;;;11.73;1.67;;;32.80;19.90;;;;;;4934956;29;20079;-61
2022/07/04 04:30:24;;;;;;;7.90;2.00;;;32.70;20.00;;;;;;4950079;28;20469;-60
2022/07/04 04:32:51;;;;;;;9.20;2.00;;;32.70;20.20;;;;;;4950172;29;20079;-62
2022/07/04 04:35:19;;;;;;;18.05;3.03;;;32.60;20.20;;;;;;4949975;28;20093;-62
2022/07/04 04:37:45;;;;;;;4.82;2.13;;;32.60;20.70;;;;;;4951392;28;20075;-63
2022/07/04 04:40:13;;;;;;;9.20;2.15;;;32.50;20.40;;;;;;4949097;28;20067;-62
2022/07/04 04:42:39;;;;;;;13.65;2.25;;;32.50;20.30;;;;;;4949941;28;20079;-59
2022/07/04 04:45:06;;;;;;;9.60;2.22;;;32.50;20.50;;;;;;4949889;29;20099;-60
2022/07/04 04:47:32;;;;;;;11.98;2.45;;;32.40;20.50;;;;;;4950900;29;20083;-62
2022/07/04 04:50:00;;;;;;;11.30;2.22;;;32.40;21.00;;;;;;4949831;28;20133;-61
2022/07/04 04:52:27;;;;;;;8.90;2.00;;;32.30;20.20;;;;;;4951452;28;20089;-62
2022/07/04 04:54:53;;;;;;;12.60;2.00;;;32.20;20.40;;;;;;4950206;28;20087;-61
2022/07/04 04:57:20;;;;;;;11.98;2.53;;;32.20;20.40;;;;;;4950562;28;20071;-62
2022/07/04 04:59:46;;;;;;;6.25;1.92;;;32.10;20.50;;;;;;4934107;29;20145;-63
2022/07/04 05:02:13;;;;;;;11.63;2.42;;;32.10;20.30;;;;;;4950825;29;20137;-61
2022/07/04 05:04:39;;;;;;;8.10;2.00;;;32.10;20.40;;;;;;4949384;29;20560;-61
2022/07/04 05:07:10;;;;;;;8.95;2.08;;;32.10;20.30;;;;;;4965743;28;20156;-61
2022/07/04 05:09:36;;;;;;;9.77;1.70;;;32.10;20.20;;;;;;4950491;28;20149;-62
2022/07/04 05:12:03;;;;;;;10.60;2.28;;;32.00;20.20;;;;;;4950674;29;20128;-61
2022/07/04 05:14:29;;;;;;;8.50;1.77;;;32.00;20.10;;;;;;4949758;28;20119;-62
2022/07/04 05:16:56;;;;;;;6.57;1.60;;;32.00;20.40;;;;;;4950478;28;20079;-62
2022/07/04 05:19:22;;;;;;;11.50;1.48;;;32.00;20.00;;;;;;4951809;28;20097;-63
2022/07/04 05:21:49;;;;;;;11.63;1.77;;;31.90;20.20;;;;;;4953527;28;20067;-61
2022/07/04 05:24:16;;;;;;;13.00;2.17;;;31.90;20.20;;;;;;4952381;29;20086;-60
2022/07/04 05:26:43;;;;;;;8.13;1.92;;;31.90;20.30;;;;;;4955025;29;20081;-61
2022/07/04 05:29:10;;;;;;;9.45;1.85;;;31.80;20.40;;;;;;4954206;28;20075;-61
2022/07/04 05:31:36;;;;;;;9.95;1.80;;;31.70;20.40;;;;;;4953137;28;20082;-61
2022/07/04 05:34:02;;;;;;;5.55;1.35;;;31.60;20.50;;;;;;4953004;28;20094;-63
2022/07/04 05:36:29;;;;;;;6.85;1.55;;;31.60;20.80;;;;;;4954277;29;20090;-60
2022/07/04 05:38:59;;;;;;;7.85;1.92;;;31.60;21.00;;;;;;4954353;29;20086;-62
2022/07/04 05:41:26;;;;;;;5.18;2.30;;;31.50;21.00;;;;;;4954061;29;20180;-62
2022/07/04 05:43:53;;;;;;;7.43;2.00;;;31.40;20.90;;;;;;4954000;28;20121;-61
2022/07/04 05:46:19;;;;;;;7.70;2.10;;;31.40;21.20;;;;;;4953453;29;20149;-61
2022/07/04 05:48:46;;;;;;;4.47;1.80;;;31.30;21.20;;;;;;4953851;29;20087;-60
2022/07/04 05:51:12;;;;;;;5.55;1.40;;;31.20;21.40;;;;;;4953210;28;20145;-60
2022/07/04 05:53:39;;;;;;;9.68;1.73;;;31.10;21.50;;;;;;4953242;29;20130;-62
2022/07/04 05:56:05;;;;;;;8.77;1.83;;;31.00;21.70;;;;;;4953014;28;20166;-63
2022/07/04 05:58:32;;;;;;;5.05;1.88;;;31.00;21.80;;;;;;4953150;28;20098;-60
2022/07/04 06:00:58;;;;;;;5.88;1.60;;;30.90;21.80;;;;;;4954003;29;20122;-61
2022/07/04 06:03:24;;;;;;;9.15;1.90;;;30.80;22.10;;;;;;4952722;28;20130;-61
2022/07/04 06:05:52;;;;;;;7.40;2.47;;;30.80;21.90;;;;;;4952560;28;20082;-61
2022/07/04 06:08:19;;;;;;;8.10;2.05;;;30.80;21.90;;;;;;4952769;28;20107;-60
2022/07/04 06:10:47;;;;;;;5.57;2.05;;;30.70;21.90;;;;;;4935825;29;20091;-63
2022/07/04 06:13:13;;;;;;;9.43;2.35;;;30.70;22.00;;;;;;4953129;28;20137;-63
2022/07/04 06:15:40;;;;;;;8.73;2.58;;;30.60;22.10;;;;;;4951281;28;20122;-68
2022/07/04 06:18:06;;;;;;;13.38;2.35;;;30.60;21.90;;;;;;4952239;29;20154;-68
2022/07/04 06:20:33;;;;;;;5.25;1.85;;;30.50;21.80;;;;;;4951302;28;20126;-66
2022/07/04 06:22:59;;;;;;;6.07;1.70;;;30.50;21.90;;;;;;4951693;29;20071;-67
2022/07/04 06:25:26;;;;;;;3.90;1.17;;;30.50;21.90;;;;;;4949678;28;20109;-67
2022/07/04 06:27:52;;;;;;;4.05;1.00;;;30.50;21.80;;;;;;4952166;28;20079;-69
2022/07/04 06:30:19;;;;;;;2.15;1.23;;;30.40;21.60;;;;;;4951770;28;20098;-66
2022/07/04 06:32:50;;;;;;;9.85;2.30;;;30.40;21.50;;;;;;4951357;28;20173;-66
2022/07/04 06:38:10;;;;;;;6.38;2.38;;;30.30;21.20;;;;;;4952060;29;20541;-68
2022/07/04 06:40:37;;;;;;;6.43;2.30;;;30.30;21.30;;;;;;4952560;29;20082;-67
2022/07/04 06:43:04;;;;;;;10.25;2.50;;;30.30;21.90;;;;;;4951281;29;20441;-69
2022/07/04 06:45:33;;;;;;;9.63;1.80;;;30.30;21.60;;;;;;4951316;29;20075;-66
2022/07/04 06:48:00;;;;;;;6.30;1.15;;;30.30;21.30;;;;;;4935459;29;20075;-67
2022/07/04 06:50:27;;;;;;;4.05;1.27;;;30.30;21.30;;;;;;4966349;28;20580;-67
2022/07/04 06:52:53;;;;;;;5.40;1.30;;;30.30;21.60;;;;;;4950922;29;20117;-67
2022/07/04 06:55:20;;;;;;;9.25;1.60;;;30.20;21.40;;;;;;4952079;29;20087;-67
2022/07/04 06:57:47;;;;;;;17.65;1.58;;;30.20;21.20;;;;;;4953232;29;20093;-67
2022/07/04 07:00:14;;;;;;;9.38;1.75;;;30.10;21.40;;;;;;4952155;29;20114;-66
2022/07/04 07:02:41;;;;;;;5.53;1.40;;;30.10;21.30;;;;;;4951723;29;20063;-65
2022/07/04 07:05:08;;;;;;;5.22;1.02;;;30.00;21.20;;;;;;4951263;29;20101;-66
2022/07/04 07:07:34;;;;;;;1.73;0.75;;;29.90;21.10;;;;;;4933922;29;20083;-67
2022/07/04 07:10:02;;;;;;;4.75;1.00;;;29.70;21.20;;;;;;4950301;28;20104;-66
2022/07/04 07:12:30;;;;;;;5.63;1.30;;;29.80;21.90;;;;;;4950937;28;20075;-67
2022/07/04 07:14:56;;;;;;;4.28;1.20;;;29.70;21.40;;;;;;4950429;28;20084;-66
2022/07/04 07:17:23;;;;;;;8.57;1.10;;;29.70;21.70;;;;;;4951513;29;20079;-67
2022/07/04 07:19:49;;;;;;;3.58;1.42;;;29.60;21.30;;;;;;4948758;28;20550;-66
2022/07/04 07:22:16;;;;;;;5.97;1.15;;;29.60;21.70;;;;;;4949186;28;20071;-64
2022/07/04 07:24:43;;;;;;;6.55;1.20;;;29.60;21.20;;;;;;4931656;29;20600;-67
2022/07/04 07:27:10;;;;;;;2.30;0.90;;;29.60;21.10;;;;;;4948020;29;20485;-66
2022/07/04 07:29:37;;;;;;;6.53;1.00;;;29.60;20.90;;;;;;4949661;28;20509;-64
2022/07/04 07:32:05;;;;;;;5.68;1.30;;;29.60;21.00;;;;;;4949637;29;20525;-67
2022/07/04 07:34:32;;;;;;;7.50;1.35;;;29.60;21.20;;;;;;4949195;29;20090;-67
2022/07/04 07:36:58;;;;;;;4.85;0.88;;;29.50;21.10;;;;;;4949466;28;20099;-66
2022/07/04 07:39:24;;;;;;;4.82;1.50;;;29.50;21.80;;;;;;4949317;28;20103;-67
2022/07/04 07:41:51;;;;;;;6.35;1.55;;;29.40;22.20;;;;;;4949796;28;20081;-67
2022/07/04 07:44:17;;;;;;;4.20;1.20;;;29.50;21.90;;;;;;4948942;29;20086;-66
2022/07/04 07:46:44;;;;;;;7.95;2.47;;;29.40;22.30;;;;;;4964370;28;20086;-67
2022/07/04 07:49:10;;;;;;;6.10;2.33;;;29.40;22.40;;;;;;4949171;29;20070;-66
2022/07/04 07:51:36;;;;;;;10.13;1.70;;;29.30;22.20;;;;;;4949065;28;20178;-65
2022/07/04 07:54:03;;;;;;;5.95;1.70;;;29.20;22.00;;;;;;4949125;28;20099;-65
2022/07/04 07:56:30;;;;;;;6.70;1.58;;;29.10;22.00;;;;;;4950118;29;20090;-65
2022/07/04 07:58:56;;;;;;;8.10;1.70;;;29.00;23.00;;;;;;4949564;29;20553;-64
2022/07/04 08:01:23;;;;;;;6.38;1.15;;;29.00;23.00;;;;;;4931563;29;20126;-65
2022/07/04 08:06:35;;;;;;;7.55;1.30;;;28.90;23.50;;;;;;4949071;29;20142;-65
2022/07/04 08:09:01;;;;;;;4.97;1.15;;;28.90;23.40;;;;;;4949766;28;20089;-65
2022/07/04 08:11:28;;;;;;;5.13;1.20;;;28.90;22.80;;;;;;4949173;28;20095;-66
2022/07/04 08:13:54;;;;;;;5.35;1.30;;;28.90;23.40;;;;;;4948666;28;20090;-65
2022/07/04 08:16:21;;;;;;;8.52;1.25;;;28.80;23.40;;;;;;4949217;28;20070;-66
2022/07/04 08:18:47;;;;;;;4.20;0.93;;;28.80;24.70;;;;;;4947933;28;20092;-65
2022/07/04 08:21:14;;;;;;;9.13;1.40;;;28.90;24.00;;;;;;4948515;29;20071;-64
2022/07/04 08:23:41;;;;;;;7.22;1.40;;;28.90;23.50;;;;;;4948468;28;20596;-64
2022/07/04 08:26:07;;;;;;;14.65;1.40;;;28.80;23.00;;;;;;4930911;29;20111;-65
2022/07/04 08:28:33;;;;;;;5.53;1.58;;;28.70;22.50;;;;;;4947754;28;20463;-64
2022/07/04 08:31:00;;;;;;;5.97;1.58;;;28.60;22.50;;;;;;4948630;28;20102;-64
2022/07/04 08:33:26;;;;;;;5.18;1.70;;;28.60;23.20;;;;;;4949234;28;20498;-64
2022/07/04 08:35:57;;;;;;;7.95;1.48;;;28.60;23.10;;;;;;4948705;28;20095;-65
2022/07/04 08:38:24;;;;;;;4.43;1.50;;;28.60;22.70;;;;;;4948433;29;20194;-65
2022/07/04 08:40:56;;;;;;;6.47;1.55;;;28.60;22.90;;;;;;4948425;29;20126;-65
2022/07/04 08:43:25;;;;;;;9.48;1.58;;;28.60;23.20;;;;;;4949996;29;20437;-65
2022/07/04 08:45:54;;;;;;;8.20;1.40;;;28.60;23.50;;;;;;4948564;29;20179;-65
2022/07/04 08:48:27;;;;;;;5.97;1.58;;;28.40;23.20;;;;;;4951079;28;20072;-64
2022/07/04 08:51:04;;;;;;;7.55;1.48;;;28.40;23.50;;;;;;4948834;29;20123;-65
2022/07/04 08:53:30;;;;;;;;;;;28.40;23.00;;;;;;4950842;28;20081;-66
2022/07/04 08:58:47;;;;;;;10.52;1.50;;;28.20;23.50;;;;;;4952166;29;20169;-65
2022/07/04 09:01:14;;;;;;;5.53;1.27;;;28.00;24.00;;;;;;4951722;29;20115;-65
2022/07/04 09:03:45;;;;;;;8.63;1.30;;;28.00;24.50;;;;;;4952505;28;20071;-65
2022/07/04 09:06:13;;;;;;;7.25;1.40;;;28.00;23.90;;;;;;4953488;28;20500;-65
2022/07/04 09:08:40;;;;;;;9.68;1.02;;;28.00;23.50;;;;;;4953699;28;20114;-67
2022/07/04 09:11:07;;;;;;;6.68;1.00;;;27.90;23.40;;;;;;4953255;29;20072;-67
2022/07/04 09:13:34;;;;;;;4.88;0.98;;;27.90;23.00;;;;;;4953119;28;20103;-66
2022/07/04 09:16:01;;;;;;;4.40;1.00;;;27.80;23.20;;;;;;4952490;28;20076;-66
2022/07/04 09:18:36;;;;;;;6.72;1.17;;;27.80;23.20;;;;;;4954196;29;20605;-66
2022/07/04 09:21:08;;;;;;;3.50;1.10;;;27.70;23.30;;;;;;4951777;29;20079;-67
2022/07/04 09:23:40;;;;;;;4.68;1.08;;;27.70;23.40;;;;;;4952411;29;20156;-65
2022/07/04 09:26:14;;;;;;;4.00;0.98;;;27.60;23.60;;;;;;4952431;28;20119;-66
2022/07/04 09:28:58;;;;;;;5.03;1.20;;;27.50;23.60;;;;;;4950722;29;20072;-66
2022/07/04 09:31:27;;;;;;;5.85;1.13;;;27.50;24.70;;;;;;4951158;29;20095;-66
2022/07/04 09:33:57;;;;;;;5.32;1.55;;;27.50;24.40;;;;;;4952375;29;20552;-65
2022/07/04 09:36:33;;;;;;;5.00;1.55;;;27.60;24.70;;;;;;4952987;28;20115;-66
2022/07/04 09:39:20;;;;;;;4.97;1.23;;;27.50;24.50;;;;;;4951885;28;20088;-66
2022/07/04 09:42:01;;;;;;;7.70;1.52;;;27.60;24.50;;;;;;4952924;28;20080;-65
2022/07/04 09:44:50;;;;;;;6.95;1.45;;;27.50;24.00;;;;;;4952580;29;20091;-66
2022/07/04 09:47:25;;;;;;;9.65;1.35;;;27.50;24.00;;;;;;4952658;28;20092;-65
2022/07/04 09:50:02;;;;;;;2.85;1.30;;;27.40;24.00;;;;;;4952044;28;20146;-65
2022/07/04 09:52:30;;;;;;;4.25;1.27;;;27.30;23.90;;;;;;4953591;28;20450;-65
2022/07/04 09:55:07;;;;;;;5.72;1.60;;;27.20;23.70;;;;;;4951905;28;20183;-65
2022/07/04 09:57:33;;;;;;;3.42;1.38;;;27.30;23.50;;;;;;4953362;28;20086;-65
2022/07/04 10:00:17;;;;;;;3.22;1.20;;;27.30;23.40;;;;;;4952058;28;20167;-65
2022/07/04 10:02:44;;;;;;;6.50;1.58;;;27.30;24.10;;;;;;4951430;29;20542;-66
2022/07/04 10:05:10;;;;;;;7.07;1.10;;;27.10;23.70;;;;;;4950848;28;20086;-66
2022/07/04 10:07:44;;;;;;;8.35;1.35;;;27.10;23.80;;;;;;4951282;28;20075;-67
2022/07/04 10:10:27;;;;;;;6.85;1.23;;;27.00;23.90;;;;;;4951988;28;20154;-67
2022/07/04 10:12:59;;;;;;;6.45;1.20;;;27.00;23.50;;;;;;4951949;28;20076;-66
2022/07/04 10:15:26;;;;;;;6.63;1.40;;;27.10;23.40;;;;;;4951324;29;20142;-67
2022/07/04 10:17:52;;;;;;;11.68;1.40;;;27.10;23.50;;;;;;4951542;29;20068;-65
2022/07/04 10:20:19;;;;;;;10.65;1.00;;;27.10;23.60;;;;;;4951009;29;20072;-65
2022/07/04 10:22:45;;;;;;;5.80;1.23;;;27.10;23.20;;;;;;4952111;29;20123;-67
2022/07/04 10:25:12;;;;;;;6.78;1.30;;;27.10;23.70;;;;;;4951125;28;20188;-65
2022/07/04 10:27:39;;;;;;;6.85;1.20;;;27.10;23.60;;;;;;4951224;28;20083;-65
2022/07/04 10:30:11;;;;;;;6.55;1.30;;;27.10;22.90;;;;;;4949949;28;20118;-65
2022/07/04 10:32:39;;;;;;;10.27;1.60;;;27.10;22.90;;;;;;4950881;28;20080;-66
2022/07/04 10:35:06;;;;;;;7.85;1.08;;;27.20;22.60;;;;;;4950787;29;20106;-66
2022/07/04 10:38:03;;;;;;;9.68;1.10;;;27.10;22.70;;;;;;4951762;29;20526;-66
2022/07/04 10:40:54;;;;;;;8.00;1.33;;;27.00;22.80;;;;;;4951800;29;20107;-65
2022/07/04 10:43:41;;;;;;;2.55;0.98;;;27.00;23.20;;;;;;4952202;28;20087;-66
2022/07/04 10:46:14;;;;;;;6.93;1.30;;;27.00;22.80;;;;;;4950489;29;20072;-66
2022/07/04 10:49:13;;;;;;;7.45;1.20;;;27.00;22.90;;;;;;4951175;28;20079;-66
2022/07/04 10:51:42;;;;;;;6.10;1.20;;;27.00;23.00;;;;;;4949636;29;20526;-67
2022/07/04 10:54:10;;;;;;;9.18;1.15;;;26.90;22.90;;;;;;4950085;29;20094;-65
2022/07/04 10:56:39;;;;;;;4.95;1.20;;;26.90;23.20;;;;;;4952494;28;20096;-68
2022/07/04 10:59:18;;;;;;;10.82;1.30;;;26.90;23.10;;;;;;4950784;29;20072;-67
2022/07/04 11:01:50;;;;;;;6.22;0.85;;;26.80;23.30;;;;;;4950526;28;20075;-66
2022/07/04 11:04:54;;;;;;;9.80;1.40;;;26.80;23.50;;;;;;4950946;29;20565;-66
2022/07/04 11:07:30;;;;;;;10.18;1.40;;;26.70;23.10;;;;;;4950842;29;20234;-66
2022/07/04 11:13:02;;;;;;;8.25;1.30;;;26.60;23.90;;;;;;4951580;29;20095;-66
2022/07/04 11:15:32;;;;;;;10.75;2.03;;;26.60;23.50;;;;;;4950462;28;20107;-67
2022/07/04 11:18:03;;;;;;;10.30;1.88;;;26.60;24.10;;;;;;4949912;28;20082;-65
2022/07/04 11:20:34;;;;;;;11.90;1.48;;;26.50;23.80;;;;;;4950002;29;20096;-66
2022/07/04 11:23:20;;;;;;;9.20;1.30;;;26.40;23.70;;;;;;4949569;29;20086;-67
2022/07/04 11:25:50;;;;;;;6.07;1.48;;;26.40;24.00;;;;;;4949409;29;20067;-66
2022/07/04 11:28:23;;;;;;;14.55;1.75;;;26.30;23.90;;;;;;4947360;29;20093;-66
2022/07/04 11:30:54;;;;;;;9.02;1.65;;;26.30;24.70;;;;;;4963482;28;20076;-64
2022/07/04 11:33:23;;;;;;;8.70;1.70;;;26.30;25.30;;;;;;4950184;28;20126;-67
2022/07/04 11:36:09;;;;;;;11.15;1.80;;;26.40;25.00;;;;;;4950020;28;20453;-65
2022/07/04 11:38:56;;;;;;;15.00;2.07;;;26.30;24.70;;;;;;4951580;29;20076;-65
2022/07/04 11:47:15;;;;;;;16.92;3.85;;;26.40;24.10;;;;;;4950676;29;20577;-66
2022/07/04 11:50:00;;;;;;;32.13;5.07;;;26.40;25.00;;;;;;4934348;29;20546;-66
2022/07/04 11:52:46;;;;;;;35.75;5.97;;;26.30;25.50;;;;;;4950098;28;20813;-68
2022/07/04 11:55:16;;;;;;;27.43;6.80;;;26.30;26.10;;;;;;4950706;29;20565;-66
2022/07/04 11:57:55;;;;;;;27.05;7.57;;;26.20;26.50;;;;;;4934777;29;20166;-65
2022/07/04 12:00:27;;;;;;;27.67;6.70;;;26.20;26.90;;;;;;4948654;29;20643;-66
2022/07/04 12:02:58;;;;;;;24.52;6.97;;;26.20;27.70;;;;;;4947979;29;20111;-65
2022/07/04 12:05:24;;;;;;;23.67;6.82;;;26.20;27.40;;;;;;4950024;28;20087;-64
2022/07/04 12:07:51;;;;;;;36.15;7.38;;;26.20;29.10;;;;;;4949598;28;20215;-65
2022/07/04 12:10:26;;;;;;;30.77;7.93;;;26.20;27.90;;;;;;4950189;29;20473;-66
2022/07/04 12:12:58;;;;;;;36.97;7.68;;;26.20;28.10;;;;;;4949513;29;20476;-65
2022/07/04 12:15:35;;;;;;;49.35;8.98;;;26.10;28.50;;;;;;4948559;29;20458;-65
2022/07/04 12:18:02;;;;;;;35.55;8.82;;;26.00;28.10;;;;;;4949377;28;20569;-66
2022/07/04 12:20:29;;;;;;;69.00;10.48;;;26.00;28.40;;;;;;4950410;28;20111;-66
2022/07/04 12:23:01;;;;;;;47.92;8.32;;;26.00;28.60;;;;;;4951165;28;20162;-65
2022/07/04 12:25:39;;;;;;;38.60;9.30;;;26.10;28.80;;;;;;4950488;28;20107;-66
2022/07/04 12:28:08;;;;;;;44.42;8.77;;;26.10;28.40;;;;;;4953384;28;20095;-66
2022/07/04 12:30:50;;;;;;;39.22;9.30;;;26.00;28.50;;;;;;4954442;28;20122;-67
2022/07/04 12:33:23;;;;;;;32.33;8.63;;;26.00;28.70;;;;;;4955096;28;20557;-67
2022/07/04 12:35:56;;;;;;;46.42;9.90;;;25.90;28.50;;;;;;4955550;28;20099;-66
2022/07/04 12:38:28;;;;;;;47.03;8.93;;;25.90;28.60;;;;;;4955824;29;20072;-66
2022/07/04 12:41:02;;;;;;;54.67;9.32;;;25.90;28.50;;;;;;4956904;28;20414;-66
2022/07/04 12:43:41;;;;;;;43.35;8.30;;;25.90;29.10;;;;;;4955808;28;20418;-65
2022/07/04 12:46:32;;;;;;;44.78;9.23;;;25.90;28.80;;;;;;4955117;28;20154;-66
2022/07/04 12:49:00;;;;;;;46.38;8.35;;;25.90;28.70;;;;;;4955657;29;20562;-67
2022/07/04 12:51:32;;;;;;;66.35;11.13;;;25.90;28.30;;;;;;4955203;29;20068;-65
2022/07/04 12:54:05;;;;;;;69.18;11.02;;;25.90;28.30;;;;;;4957568;28;20084;-65
2022/07/04 12:56:36;;;;;;;71.75;11.52;;;25.90;28.30;;;;;;4956692;28;20094;-65
2022/07/04 12:59:11;;;;;;;56.38;14.50;;;25.90;29.20;;;;;;4954343;29;20100;-66
2022/07/04 13:01:38;;;;;;;53.28;13.48;;;25.90;28.20;;;;;;4940234;29;20449;-65
2022/07/04 13:04:05;;;;;;;57.28;14.20;;;26.00;28.30;;;;;;4938319;29;20096;-64
2022/07/04 13:06:31;;;;;;;70.05;15.23;;;26.00;28.30;;;;;;4955687;28;20642;-67
2022/07/04 13:08:58;;;;;;;69.70;16.23;;;26.00;29.70;;;;;;4955640;28;20534;-65
2022/07/04 13:14:10;;;;;;;87.82;15.98;;;26.10;29.10;;;;;;4956719;28;20098;-64
2022/07/04 13:16:36;;;;;;;55.60;16.08;;;26.10;28.80;;;;;;4955812;28;20530;-67